sensor_id;sensor_type;location;lat;lon;timestamp;pressure;altitude;pressure_sealevel;temperature;humidity
56689;BME280;42565;53.342;-1.534;2023-03-14T00:00:15;96158.27;;;6.51;69.68
56689;BME280;42565;53.342;-1.534;2023-03-14T00:02:43;96162.53;;;5.96;70.31
56689;BME280;42565;53.342;-1.534;2023-03-14T00:05:10;96167.75;;;6.21;70.55
56689;BME280;42565;53.342;-1.534;2023-03-14T00:07:39;96172.30;;;5.84;71.05
56689;BME280;42565;53.342;-1.534;2023-03-14T00:10:09;96174.24;;;5.95;70.06
56689;BME280;42565;53.342;-1.534;2023-03-14T00:12:36;96178.30;;;6.15;70.36
56689;BME280;42565;53.342;-1.534;2023-03-14T00:15:04;96181.25;;;5.71;70.43
56689;BME280;42565;53.342;-1.534;2023-03-14T00:17:31;96184.89;;;5.95;69.64
56689;BME280;42565;53.342;-1.534;2023-03-14T00:19:58;96187.85;;;5.83;70.24
56689;BME280;42565;53.342;-1.534;2023-03-14T00:22:27;96195.23;;;6.08;69.01
56689;BME280;42565;53.342;-1.534;2023-03-14T00:24:54;96205.94;;;5.79;69.55
56689;BME280;42565;53.342;-1.534;2023-03-14T00:27:20;96209.95;;;6.07;69.54
56689;BME280;42565;53.342;-1.534;2023-03-14T00:29:47;96212.89;;;5.79;69.82
56689;BME280;42565;53.342;-1.534;2023-03-14T00:32:15;96216.84;;;5.80;70.20
56689;BME280;42565;53.342;-1.534;2023-03-14T00:34:42;96227.60;;;6.01;69.57
56689;BME280;42565;53.342;-1.534;2023-03-14T00:37:09;96235.10;;;6.19;69.18
56689;BME280;42565;53.342;-1.534;2023-03-14T00:39:37;96247.04;;;6.19;68.70
56689;BME280;42565;53.342;-1.534;2023-03-14T00:42:04;96254.36;;;5.65;69.86
56689;BME280;42565;53.342;-1.534;2023-03-14T00:44:31;96259.82;;;5.79;70.06
56689;BME280;42565;53.342;-1.534;2023-03-14T00:46:59;96263.18;;;6.01;69.52
56689;BME280;42565;53.342;-1.534;2023-03-14T00:49:26;96263.56;;;5.90;69.78
56689;BME280;42565;53.342;-1.534;2023-03-14T00:51:53;96275.26;;;5.95;70.39
56689;BME280;42565;53.342;-1.534;2023-03-14T00:54:20;96282.84;;;5.69;70.63
56689;BME280;42565;53.342;-1.534;2023-03-14T00:56:48;96284.38;;;6.12;69.95
56689;BME280;42565;53.342;-1.534;2023-03-14T00:59:16;96286.00;;;6.07;69.39
56689;BME280;42565;53.342;-1.534;2023-03-14T01:01:43;96291.15;;;6.72;67.85
56689;BME280;42565;53.342;-1.534;2023-03-14T01:04:10;96294.88;;;6.86;66.72
56689;BME280;42565;53.342;-1.534;2023-03-14T01:06:37;96307.15;;;6.55;67.93
56689;BME280;42565;53.342;-1.534;2023-03-14T01:09:06;96310.43;;;5.94;69.74
56689;BME280;42565;53.342;-1.534;2023-03-14T01:11:34;96318.06;;;5.75;69.51
56689;BME280;42565;53.342;-1.534;2023-03-14T01:14:03;96333.03;;;6.27;69.63
56689;BME280;42565;53.342;-1.534;2023-03-14T01:16:34;96333.32;;;6.05;69.08
56689;BME280;42565;53.342;-1.534;2023-03-14T01:19:02;96343.58;;;6.04;69.26
56689;BME280;42565;53.342;-1.534;2023-03-14T01:21:32;96350.21;;;6.19;69.20
56689;BME280;42565;53.342;-1.534;2023-03-14T01:24:02;96363.33;;;5.81;70.02
56689;BME280;42565;53.342;-1.534;2023-03-14T01:26:31;96365.13;;;4.32;74.26
56689;BME280;42565;53.342;-1.534;2023-03-14T01:28:59;96368.65;;;4.80;72.62
56689;BME280;42565;53.342;-1.534;2023-03-14T01:31:26;96376.40;;;5.56;72.64
56689;BME280;42565;53.342;-1.534;2023-03-14T01:33:54;96381.66;;;5.03;72.62
56689;BME280;42565;53.342;-1.534;2023-03-14T01:36:21;96383.76;;;5.47;72.18
56689;BME280;42565;53.342;-1.534;2023-03-14T01:38:48;96384.20;;;4.96;72.32
56689;BME280;42565;53.342;-1.534;2023-03-14T01:41:18;96389.68;;;4.74;71.99
56689;BME280;42565;53.342;-1.534;2023-03-14T01:43:45;96400.12;;;5.09;72.01
56689;BME280;42565;53.342;-1.534;2023-03-14T01:46:20;96402.77;;;4.96;72.57
56689;BME280;42565;53.342;-1.534;2023-03-14T01:48:53;96405.31;;;4.99;72.45
56689;BME280;42565;53.342;-1.534;2023-03-14T01:51:25;96415.08;;;5.17;71.90
56689;BME280;42565;53.342;-1.534;2023-03-14T01:53:55;96419.65;;;4.28;72.88
56689;BME280;42565;53.342;-1.534;2023-03-14T01:56:26;96424.04;;;4.75;72.03
56689;BME280;42565;53.342;-1.534;2023-03-14T01:58:54;96439.21;;;5.39;70.54
56689;BME280;42565;53.342;-1.534;2023-03-14T02:01:24;96437.29;;;5.12;70.86
56689;BME280;42565;53.342;-1.534;2023-03-14T02:03:55;96435.74;;;4.84;71.45
56689;BME280;42565;53.342;-1.534;2023-03-14T02:06:26;96442.16;;;5.08;70.34
56689;BME280;42565;53.342;-1.534;2023-03-14T02:08:55;96445.27;;;5.57;69.25
56689;BME280;42565;53.342;-1.534;2023-03-14T02:11:27;96449.09;;;5.46;69.82
56689;BME280;42565;53.342;-1.534;2023-03-14T02:13:56;96456.19;;;5.34;69.12
56689;BME280;42565;53.342;-1.534;2023-03-14T02:16:24;96462.23;;;5.42;70.04
56689;BME280;42565;53.342;-1.534;2023-03-14T02:18:52;96466.62;;;5.00;71.18
56689;BME280;42565;53.342;-1.534;2023-03-14T02:21:24;96470.42;;;5.24;71.11
56689;BME280;42565;53.342;-1.534;2023-03-14T02:23:59;96473.89;;;4.73;72.85
56689;BME280;42565;53.342;-1.534;2023-03-14T02:26:36;96475.07;;;4.66;70.94
56689;BME280;42565;53.342;-1.534;2023-03-14T02:29:05;96487.63;;;4.90;70.13
56689;BME280;42565;53.342;-1.534;2023-03-14T02:31:33;96500.22;;;4.88;69.50
56689;BME280;42565;53.342;-1.534;2023-03-14T02:34:01;96505.51;;;5.02;68.89
56689;BME280;42565;53.342;-1.534;2023-03-14T02:36:30;96510.76;;;4.52;70.89
56689;BME280;42565;53.342;-1.534;2023-03-14T02:39:03;96516.14;;;4.79;70.77
56689;BME280;42565;53.342;-1.534;2023-03-14T02:41:33;96516.35;;;4.90;71.07
56689;BME280;42565;53.342;-1.534;2023-03-14T02:44:00;96521.07;;;4.97;70.94
56689;BME280;42565;53.342;-1.534;2023-03-14T02:46:27;96526.70;;;4.58;70.11
56689;BME280;42565;53.342;-1.534;2023-03-14T02:48:57;96533.85;;;5.00;70.46
56689;BME280;42565;53.342;-1.534;2023-03-14T02:51:26;96541.59;;;5.33;69.46
56689;BME280;42565;53.342;-1.534;2023-03-14T02:53:55;96551.99;;;5.08;69.91
56689;BME280;42565;53.342;-1.534;2023-03-14T02:56:22;96561.36;;;4.31;72.01
56689;BME280;42565;53.342;-1.534;2023-03-14T02:58:50;96570.20;;;4.64;71.27
56689;BME280;42565;53.342;-1.534;2023-03-14T03:01:17;96583.27;;;4.30;71.99
56689;BME280;42565;53.342;-1.534;2023-03-14T03:03:44;96593.18;;;4.14;71.87
56689;BME280;42565;53.342;-1.534;2023-03-14T03:06:12;96605.52;;;4.15;71.65
56689;BME280;42565;53.342;-1.534;2023-03-14T03:08:38;96612.93;;;3.92;72.33
56689;BME280;42565;53.342;-1.534;2023-03-14T03:11:06;96624.34;;;4.19;71.80
56689;BME280;42565;53.342;-1.534;2023-03-14T03:13:33;96628.97;;;4.62;69.83
56689;BME280;42565;53.342;-1.534;2023-03-14T03:16:01;96631.34;;;4.54;69.54
56689;BME280;42565;53.342;-1.534;2023-03-14T03:18:29;96634.48;;;4.59;69.96
56689;BME280;42565;53.342;-1.534;2023-03-14T03:20:59;96643.92;;;4.77;69.00
56689;BME280;42565;53.342;-1.534;2023-03-14T03:23:26;96649.95;;;4.72;69.36
56689;BME280;42565;53.342;-1.534;2023-03-14T03:25:53;96651.90;;;4.41;69.35
56689;BME280;42565;53.342;-1.534;2023-03-14T03:28:20;96655.45;;;5.00;68.92
56689;BME280;42565;53.342;-1.534;2023-03-14T03:30:46;96657.69;;;5.09;68.28
56689;BME280;42565;53.342;-1.534;2023-03-14T03:33:13;96668.93;;;4.46;69.86
56689;BME280;42565;53.342;-1.534;2023-03-14T03:35:43;96675.88;;;4.78;69.01
56689;BME280;42565;53.342;-1.534;2023-03-14T03:38:12;96685.96;;;4.60;69.79
56689;BME280;42565;53.342;-1.534;2023-03-14T03:40:39;96699.90;;;4.53;69.36
56689;BME280;42565;53.342;-1.534;2023-03-14T03:43:06;96706.05;;;4.34;71.25
56689;BME280;42565;53.342;-1.534;2023-03-14T03:45:34;96709.92;;;4.65;70.57
56689;BME280;42565;53.342;-1.534;2023-03-14T03:48:02;96719.45;;;4.52;70.57
56689;BME280;42565;53.342;-1.534;2023-03-14T03:50:29;96727.74;;;4.61;70.30
56689;BME280;42565;53.342;-1.534;2023-03-14T03:52:56;96730.26;;;4.58;70.55
56689;BME280;42565;53.342;-1.534;2023-03-14T03:55:23;96745.13;;;4.47;69.34
56689;BME280;42565;53.342;-1.534;2023-03-14T03:57:50;96755.38;;;4.47;69.98
56689;BME280;42565;53.342;-1.534;2023-03-14T04:00:17;96759.38;;;4.17;69.46
56689;BME280;42565;53.342;-1.534;2023-03-14T04:02:44;96773.48;;;4.75;68.62
56689;BME280;42565;53.342;-1.534;2023-03-14T04:05:11;96777.94;;;4.92;67.20
56689;BME280;42565;53.342;-1.534;2023-03-14T04:07:38;96784.91;;;5.07;65.98
56689;BME280;42565;53.342;-1.534;2023-03-14T04:10:05;96791.12;;;4.96;66.46
56689;BME280;42565;53.342;-1.534;2023-03-14T04:12:32;96797.32;;;4.65;68.06
56689;BME280;42565;53.342;-1.534;2023-03-14T04:14:59;96821.56;;;4.18;69.40
56689;BME280;42565;53.342;-1.534;2023-03-14T04:17:26;96827.94;;;3.22;72.07
56689;BME280;42565;53.342;-1.534;2023-03-14T04:19:52;96839.00;;;2.98;73.37
56689;BME280;42565;53.342;-1.534;2023-03-14T04:22:19;96846.22;;;3.15;72.76
56689;BME280;42565;53.342;-1.534;2023-03-14T04:24:46;96856.72;;;3.47;72.16
56689;BME280;42565;53.342;-1.534;2023-03-14T04:27:13;96862.98;;;3.77;71.88
56689;BME280;42565;53.342;-1.534;2023-03-14T04:29:39;96871.23;;;2.83;73.35
56689;BME280;42565;53.342;-1.534;2023-03-14T04:32:06;96882.24;;;3.17;72.74
56689;BME280;42565;53.342;-1.534;2023-03-14T04:34:34;96891.39;;;3.38;72.50
56689;BME280;42565;53.342;-1.534;2023-03-14T04:37:00;96903.37;;;3.81;72.55
56689;BME280;42565;53.342;-1.534;2023-03-14T04:39:27;96909.67;;;3.33;72.57
56689;BME280;42565;53.342;-1.534;2023-03-14T04:41:55;96914.90;;;3.68;71.61
56689;BME280;42565;53.342;-1.534;2023-03-14T04:44:22;96923.99;;;3.75;70.58
56689;BME280;42565;53.342;-1.534;2023-03-14T04:46:48;96940.23;;;3.75;72.20
56689;BME280;42565;53.342;-1.534;2023-03-14T04:49:15;96949.52;;;3.96;71.05
56689;BME280;42565;53.342;-1.534;2023-03-14T04:51:42;96961.92;;;3.90;70.63
56689;BME280;42565;53.342;-1.534;2023-03-14T04:54:09;96960.92;;;3.56;71.35
56689;BME280;42565;53.342;-1.534;2023-03-14T04:56:36;96971.93;;;3.80;71.41
56689;BME280;42565;53.342;-1.534;2023-03-14T04:59:04;96978.15;;;4.24;69.96
56689;BME280;42565;53.342;-1.534;2023-03-14T05:01:31;96982.01;;;4.01;70.07
56689;BME280;42565;53.342;-1.534;2023-03-14T05:03:59;96986.39;;;4.50;69.28
56689;BME280;42565;53.342;-1.534;2023-03-14T05:06:26;96988.49;;;4.61;67.89
56689;BME280;42565;53.342;-1.534;2023-03-14T05:08:53;96993.29;;;4.54;67.30
56689;BME280;42565;53.342;-1.534;2023-03-14T05:11:20;96997.18;;;4.97;66.97
56689;BME280;42565;53.342;-1.534;2023-03-14T05:13:47;97002.88;;;4.39;67.59
56689;BME280;42565;53.342;-1.534;2023-03-14T05:16:13;97009.15;;;4.64;67.76
56689;BME280;42565;53.342;-1.534;2023-03-14T05:18:40;97012.33;;;4.88;67.12
56689;BME280;42565;53.342;-1.534;2023-03-14T05:21:07;97021.43;;;4.44;67.85
56689;BME280;42565;53.342;-1.534;2023-03-14T05:23:34;97031.77;;;3.76;70.20
56689;BME280;42565;53.342;-1.534;2023-03-14T05:26:00;97039.62;;;3.55;70.27
56689;BME280;42565;53.342;-1.534;2023-03-14T05:28:28;97046.72;;;3.54;69.99
56689;BME280;42565;53.342;-1.534;2023-03-14T05:30:55;97045.73;;;3.73;70.15
56689;BME280;42565;53.342;-1.534;2023-03-14T05:33:22;97054.14;;;3.94;69.50
56689;BME280;42565;53.342;-1.534;2023-03-14T05:35:49;97058.90;;;4.30;68.30
56689;BME280;42565;53.342;-1.534;2023-03-14T05:38:15;97068.42;;;4.15;68.89
56689;BME280;42565;53.342;-1.534;2023-03-14T05:40:42;97074.58;;;4.44;67.43
56689;BME280;42565;53.342;-1.534;2023-03-14T05:43:09;97080.68;;;4.65;66.56
56689;BME280;42565;53.342;-1.534;2023-03-14T05:45:37;97090.25;;;4.32;67.10
56689;BME280;42565;53.342;-1.534;2023-03-14T05:48:04;97103.65;;;4.46;67.78
56689;BME280;42565;53.342;-1.534;2023-03-14T05:50:32;97112.76;;;4.45;68.48
56689;BME280;42565;53.342;-1.534;2023-03-14T05:52:59;97122.57;;;4.59;67.27
56689;BME280;42565;53.342;-1.534;2023-03-14T05:55:26;97131.52;;;4.39;67.24
56689;BME280;42565;53.342;-1.534;2023-03-14T05:57:54;97141.40;;;4.15;66.09
56689;BME280;42565;53.342;-1.534;2023-03-14T06:00:22;97147.98;;;4.36;66.41
56689;BME280;42565;53.342;-1.534;2023-03-14T06:02:49;97158.96;;;4.40;66.08
56689;BME280;42565;53.342;-1.534;2023-03-14T06:05:17;97167.52;;;4.30;66.19
56689;BME280;42565;53.342;-1.534;2023-03-14T06:07:45;97174.21;;;4.08;66.25
56689;BME280;42565;53.342;-1.534;2023-03-14T06:10:11;97176.21;;;4.33;65.46
56689;BME280;42565;53.342;-1.534;2023-03-14T06:12:38;97180.73;;;4.00;66.16
56689;BME280;42565;53.342;-1.534;2023-03-14T06:15:06;97179.87;;;4.26;66.10
56689;BME280;42565;53.342;-1.534;2023-03-14T06:17:34;97180.03;;;4.25;65.55
56689;BME280;42565;53.342;-1.534;2023-03-14T06:20:01;97187.69;;;4.79;64.22
56689;BME280;42565;53.342;-1.534;2023-03-14T06:22:29;97192.70;;;4.22;64.81
56689;BME280;42565;53.342;-1.534;2023-03-14T06:24:56;97195.63;;;4.08;65.03
56689;BME280;42565;53.342;-1.534;2023-03-14T06:27:23;97206.00;;;4.28;65.47
56689;BME280;42565;53.342;-1.534;2023-03-14T06:29:50;97217.52;;;3.64;65.92
56689;BME280;42565;53.342;-1.534;2023-03-14T06:32:17;97229.84;;;3.72;65.93
56689;BME280;42565;53.342;-1.534;2023-03-14T06:34:44;97236.36;;;3.84;65.62
56689;BME280;42565;53.342;-1.534;2023-03-14T06:37:11;97243.87;;;3.92;66.11
56689;BME280;42565;53.342;-1.534;2023-03-14T06:39:38;97248.75;;;3.96;65.48
56689;BME280;42565;53.342;-1.534;2023-03-14T06:42:05;97252.88;;;4.06;64.71
56689;BME280;42565;53.342;-1.534;2023-03-14T06:44:33;97261.11;;;3.94;63.25
56689;BME280;42565;53.342;-1.534;2023-03-14T06:47:00;97271.80;;;3.72;64.52
56689;BME280;42565;53.342;-1.534;2023-03-14T06:49:28;97281.50;;;3.67;64.16
56689;BME280;42565;53.342;-1.534;2023-03-14T06:51:55;97292.15;;;3.79;63.99
56689;BME280;42565;53.342;-1.534;2023-03-14T06:54:22;97303.71;;;3.21;65.71
56689;BME280;42565;53.342;-1.534;2023-03-14T06:56:49;97310.01;;;3.54;64.45
56689;BME280;42565;53.342;-1.534;2023-03-14T06:59:16;97322.43;;;3.44;63.92
56689;BME280;42565;53.342;-1.534;2023-03-14T07:01:43;97328.85;;;3.91;63.53
56689;BME280;42565;53.342;-1.534;2023-03-14T07:04:10;97334.15;;;3.96;62.12
56689;BME280;42565;53.342;-1.534;2023-03-14T07:06:37;97341.25;;;3.75;62.05
56689;BME280;42565;53.342;-1.534;2023-03-14T07:09:04;97353.33;;;3.85;61.56
56689;BME280;42565;53.342;-1.534;2023-03-14T07:11:31;97356.80;;;3.67;61.78
56689;BME280;42565;53.342;-1.534;2023-03-14T07:13:57;97364.03;;;4.00;62.37
56689;BME280;42565;53.342;-1.534;2023-03-14T07:16:24;97374.36;;;3.63;62.22
56689;BME280;42565;53.342;-1.534;2023-03-14T07:18:51;97382.60;;;4.08;61.58
56689;BME280;42565;53.342;-1.534;2023-03-14T07:21:18;97397.12;;;4.00;61.51
56689;BME280;42565;53.342;-1.534;2023-03-14T07:23:44;97401.55;;;4.34;60.93
56689;BME280;42565;53.342;-1.534;2023-03-14T07:26:11;97399.50;;;4.05;60.82
56689;BME280;42565;53.342;-1.534;2023-03-14T07:28:38;97400.94;;;4.97;59.56
56689;BME280;42565;53.342;-1.534;2023-03-14T07:31:06;97409.63;;;4.94;58.30
56689;BME280;42565;53.342;-1.534;2023-03-14T07:33:33;97418.68;;;4.30;57.60
56689;BME280;42565;53.342;-1.534;2023-03-14T07:36:01;97423.41;;;4.88;57.38
56689;BME280;42565;53.342;-1.534;2023-03-14T07:38:29;97418.15;;;5.00;57.14
56689;BME280;42565;53.342;-1.534;2023-03-14T07:41:00;97424.08;;;5.16;56.19
56689;BME280;42565;53.342;-1.534;2023-03-14T07:43:27;97433.64;;;5.25;55.82
56689;BME280;42565;53.342;-1.534;2023-03-14T07:45:54;97440.12;;;5.75;54.38
56689;BME280;42565;53.342;-1.534;2023-03-14T07:48:21;97446.33;;;5.92;55.77
56689;BME280;42565;53.342;-1.534;2023-03-14T07:50:48;97453.27;;;5.79;54.00
56689;BME280;42565;53.342;-1.534;2023-03-14T07:53:16;97459.73;;;6.20;54.78
56689;BME280;42565;53.342;-1.534;2023-03-14T07:55:42;97470.08;;;5.84;54.80
56689;BME280;42565;53.342;-1.534;2023-03-14T07:58:09;97481.47;;;6.14;52.67
56689;BME280;42565;53.342;-1.534;2023-03-14T08:00:36;97491.21;;;6.41;53.88
56689;BME280;42565;53.342;-1.534;2023-03-14T08:03:04;97498.92;;;6.82;53.37
56689;BME280;42565;53.342;-1.534;2023-03-14T08:05:30;97502.28;;;6.29;51.77
56689;BME280;42565;53.342;-1.534;2023-03-14T08:08:01;97513.76;;;6.90;52.06
56689;BME280;42565;53.342;-1.534;2023-03-14T08:10:28;97520.59;;;6.84;51.04
56689;BME280;42565;53.342;-1.534;2023-03-14T08:12:58;97522.09;;;7.09;51.32
56689;BME280;42565;53.342;-1.534;2023-03-14T08:15:26;97534.06;;;7.50;48.71
56689;BME280;42565;53.342;-1.534;2023-03-14T08:17:54;97538.71;;;7.43;48.15
56689;BME280;42565;53.342;-1.534;2023-03-14T08:20:23;97548.52;;;7.41;48.99
56689;BME280;42565;53.342;-1.534;2023-03-14T08:22:51;97552.46;;;8.11;48.58
56689;BME280;42565;53.342;-1.534;2023-03-14T08:25:19;97553.96;;;7.95;48.81
56689;BME280;42565;53.342;-1.534;2023-03-14T08:27:46;97560.29;;;8.12;47.25
56689;BME280;42565;53.342;-1.534;2023-03-14T08:30:15;97563.11;;;8.45;45.92
56689;BME280;42565;53.342;-1.534;2023-03-14T08:32:43;97575.60;;;8.33;46.14
56689;BME280;42565;53.342;-1.534;2023-03-14T08:35:10;97581.18;;;8.72;45.18
56689;BME280;42565;53.342;-1.534;2023-03-14T08:37:38;97585.26;;;8.44;45.28
56689;BME280;42565;53.342;-1.534;2023-03-14T08:40:06;97602.49;;;8.59;46.22
56689;BME280;42565;53.342;-1.534;2023-03-14T08:42:34;97602.27;;;8.51;45.18
56689;BME280;42565;53.342;-1.534;2023-03-14T08:45:01;97603.38;;;8.63;44.68
56689;BME280;42565;53.342;-1.534;2023-03-14T08:47:29;97611.48;;;8.79;44.06
56689;BME280;42565;53.342;-1.534;2023-03-14T08:49:56;97615.64;;;8.93;47.03
56689;BME280;42565;53.342;-1.534;2023-03-14T08:52:23;97625.88;;;8.83;43.93
56689;BME280;42565;53.342;-1.534;2023-03-14T08:54:51;97629.29;;;9.07;43.60
56689;BME280;42565;53.342;-1.534;2023-03-14T08:57:18;97635.22;;;9.50;42.82
56689;BME280;42565;53.342;-1.534;2023-03-14T08:59:45;97641.12;;;9.59;43.38
56689;BME280;42565;53.342;-1.534;2023-03-14T09:02:12;97647.89;;;9.88;42.97
56689;BME280;42565;53.342;-1.534;2023-03-14T09:04:39;97649.55;;;9.98;43.39
56689;BME280;42565;53.342;-1.534;2023-03-14T09:07:07;97655.25;;;9.18;43.09
56689;BME280;42565;53.342;-1.534;2023-03-14T09:09:34;97653.13;;;9.03;43.40
56689;BME280;42565;53.342;-1.534;2023-03-14T09:12:01;97657.49;;;8.90;43.72
56689;BME280;42565;53.342;-1.534;2023-03-14T09:14:28;97660.96;;;8.85;44.93
56689;BME280;42565;53.342;-1.534;2023-03-14T09:16:55;97668.64;;;8.33;46.34
56689;BME280;42565;53.342;-1.534;2023-03-14T09:19:22;97672.01;;;8.18;47.98
56689;BME280;42565;53.342;-1.534;2023-03-14T09:21:49;97681.21;;;8.23;46.01
56689;BME280;42565;53.342;-1.534;2023-03-14T09:24:17;97680.98;;;8.03;46.50
56689;BME280;42565;53.342;-1.534;2023-03-14T09:26:44;97692.85;;;8.20;47.87
56689;BME280;42565;53.342;-1.534;2023-03-14T09:29:10;97696.90;;;8.45;46.42
56689;BME280;42565;53.342;-1.534;2023-03-14T09:31:38;97708.48;;;8.75;45.82
56689;BME280;42565;53.342;-1.534;2023-03-14T09:34:06;97709.80;;;8.86;42.84
56689;BME280;42565;53.342;-1.534;2023-03-14T09:36:32;97721.60;;;9.24;45.09
56689;BME280;42565;53.342;-1.534;2023-03-14T09:38:59;97720.13;;;8.91;46.39
56689;BME280;42565;53.342;-1.534;2023-03-14T09:41:28;97714.07;;;8.97;44.59
56689;BME280;42565;53.342;-1.534;2023-03-14T09:44:02;97718.73;;;9.21;44.35
56689;BME280;42565;53.342;-1.534;2023-03-14T09:46:32;97724.14;;;9.87;43.73
56689;BME280;42565;53.342;-1.534;2023-03-14T09:49:02;97733.61;;;9.02;43.64
56689;BME280;42565;53.342;-1.534;2023-03-14T09:51:29;97741.52;;;8.94;45.08
56689;BME280;42565;53.342;-1.534;2023-03-14T09:53:57;97746.37;;;9.17;44.49
56689;BME280;42565;53.342;-1.534;2023-03-14T09:56:26;97759.06;;;9.52;44.81
56689;BME280;42565;53.342;-1.534;2023-03-14T09:58:56;97759.68;;;9.20;42.13
56689;BME280;42565;53.342;-1.534;2023-03-14T10:01:27;97764.39;;;8.99;41.95
56689;BME280;42565;53.342;-1.534;2023-03-14T10:03:56;97768.18;;;10.00;41.05
56689;BME280;42565;53.342;-1.534;2023-03-14T10:06:26;97767.69;;;10.47;41.71
56689;BME280;42565;53.342;-1.534;2023-03-14T10:08:55;97764.71;;;10.03;40.41
56689;BME280;42565;53.342;-1.534;2023-03-14T10:11:23;97761.62;;;10.10;40.17
56689;BME280;42565;53.342;-1.534;2023-03-14T10:14:04;97761.41;;;10.41;39.91
56689;BME280;42565;53.342;-1.534;2023-03-14T10:16:32;97762.82;;;10.25;39.21
56689;BME280;42565;53.342;-1.534;2023-03-14T10:19:05;97760.19;;;10.83;39.22
56689;BME280;42565;53.342;-1.534;2023-03-14T10:21:37;97759.92;;;9.47;40.36
56689;BME280;42565;53.342;-1.534;2023-03-14T10:24:15;97768.49;;;9.75;40.94
56689;BME280;42565;53.342;-1.534;2023-03-14T10:26:48;97773.78;;;9.42;37.73
56689;BME280;42565;53.342;-1.534;2023-03-14T10:29:16;97771.49;;;9.71;38.79
56689;BME280;42565;53.342;-1.534;2023-03-14T10:31:49;97780.98;;;9.87;38.06
56689;BME280;42565;53.342;-1.534;2023-03-14T10:34:21;97781.09;;;10.22;38.35
56689;BME280;42565;53.342;-1.534;2023-03-14T10:36:53;97786.17;;;10.53;37.20
56689;BME280;42565;53.342;-1.534;2023-03-14T10:39:27;97779.61;;;10.97;35.62
56689;BME280;42565;53.342;-1.534;2023-03-14T10:41:56;97796.04;;;10.56;36.71
56689;BME280;42565;53.342;-1.534;2023-03-14T10:44:30;97802.43;;;10.59;37.28
56689;BME280;42565;53.342;-1.534;2023-03-14T10:46:59;97802.45;;;10.14;34.54
56689;BME280;42565;53.342;-1.534;2023-03-14T10:49:29;97825.53;;;10.63;37.25
56689;BME280;42565;53.342;-1.534;2023-03-14T10:52:01;97828.16;;;10.69;37.86
56689;BME280;42565;53.342;-1.534;2023-03-14T10:54:30;97838.29;;;10.91;36.38
56689;BME280;42565;53.342;-1.534;2023-03-14T10:56:58;97846.01;;;11.43;37.09
56689;BME280;42565;53.342;-1.534;2023-03-14T10:59:29;97839.43;;;11.38;38.32
56689;BME280;42565;53.342;-1.534;2023-03-14T11:02:07;97849.97;;;11.26;36.51
56689;BME280;42565;53.342;-1.534;2023-03-14T11:04:55;97856.52;;;10.94;36.30
56689;BME280;42565;53.342;-1.534;2023-03-14T11:07:29;97862.69;;;10.05;35.33
56689;BME280;42565;53.342;-1.534;2023-03-14T11:10:04;97863.57;;;9.58;37.55
56689;BME280;42565;53.342;-1.534;2023-03-14T11:12:41;97877.53;;;8.98;39.11
56689;BME280;42565;53.342;-1.534;2023-03-14T11:15:17;97891.38;;;9.57;38.76
56689;BME280;42565;53.342;-1.534;2023-03-14T11:17:53;97897.57;;;8.94;39.46
56689;BME280;42565;53.342;-1.534;2023-03-14T11:20:34;97901.75;;;8.60;40.26
56689;BME280;42565;53.342;-1.534;2023-03-14T11:23:10;97909.49;;;7.89;39.62
56689;BME280;42565;53.342;-1.534;2023-03-14T11:25:43;97919.23;;;8.01;41.12
56689;BME280;42565;53.342;-1.534;2023-03-14T11:28:18;97928.54;;;8.00;42.73
56689;BME280;42565;53.342;-1.534;2023-03-14T11:30:52;97943.60;;;7.20;45.01
56689;BME280;42565;53.342;-1.534;2023-03-14T11:33:24;97956.44;;;7.07;48.29
56689;BME280;42565;53.342;-1.534;2023-03-14T11:35:58;97961.97;;;7.28;49.63
56689;BME280;42565;53.342;-1.534;2023-03-14T11:38:32;97967.77;;;7.60;49.70
56689;BME280;42565;53.342;-1.534;2023-03-14T11:41:01;97976.28;;;7.19;51.54
56689;BME280;42565;53.342;-1.534;2023-03-14T11:43:33;97986.00;;;6.82;52.86
56689;BME280;42565;53.342;-1.534;2023-03-14T11:46:05;97991.57;;;6.13;54.64
56689;BME280;42565;53.342;-1.534;2023-03-14T11:48:39;97961.25;;;6.15;55.06
56689;BME280;42565;53.342;-1.534;2023-03-14T11:51:13;97946.93;;;6.16;55.27
56689;BME280;42565;53.342;-1.534;2023-03-14T11:53:49;97945.48;;;6.16;55.54
56689;BME280;42565;53.342;-1.534;2023-03-14T11:56:24;97943.20;;;6.26;55.73
56689;BME280;42565;53.342;-1.534;2023-03-14T11:58:57;97935.98;;;7.53;53.53
56689;BME280;42565;53.342;-1.534;2023-03-14T12:01:35;97934.93;;;8.77;52.23
56689;BME280;42565;53.342;-1.534;2023-03-14T12:04:13;97932.65;;;10.14;50.29
56689;BME280;42565;53.342;-1.534;2023-03-14T12:06:47;97936.98;;;10.12;46.69
56689;BME280;42565;53.342;-1.534;2023-03-14T12:09:16;97943.21;;;10.49;45.97
56689;BME280;42565;53.342;-1.534;2023-03-14T12:11:48;97943.77;;;11.73;46.13
56689;BME280;42565;53.342;-1.534;2023-03-14T12:14:19;97941.49;;;11.14;43.27
56689;BME280;42565;53.342;-1.534;2023-03-14T12:16:48;97944.93;;;10.65;43.67
56689;BME280;42565;53.342;-1.534;2023-03-14T12:19:28;97944.02;;;10.33;43.57
56689;BME280;42565;53.342;-1.534;2023-03-14T12:21:59;97945.11;;;10.11;44.23
56689;BME280;42565;53.342;-1.534;2023-03-14T12:24:30;97945.16;;;9.94;47.04
56689;BME280;42565;53.342;-1.534;2023-03-14T12:27:00;97944.62;;;10.08;45.35
56689;BME280;42565;53.342;-1.534;2023-03-14T12:29:28;97946.40;;;10.06;43.92
56689;BME280;42565;53.342;-1.534;2023-03-14T12:32:22;97948.66;;;10.28;42.68
56689;BME280;42565;53.342;-1.534;2023-03-14T12:34:50;97955.90;;;10.57;43.28
56689;BME280;42565;53.342;-1.534;2023-03-14T12:37:24;97967.82;;;10.33;41.73
56689;BME280;42565;53.342;-1.534;2023-03-14T12:40:04;97970.86;;;9.52;41.98
56689;BME280;42565;53.342;-1.534;2023-03-14T12:42:44;97985.21;;;9.41;44.47
56689;BME280;42565;53.342;-1.534;2023-03-14T12:45:23;97979.15;;;8.25;46.49
56689;BME280;42565;53.342;-1.534;2023-03-14T12:47:53;97982.75;;;7.95;47.72
56689;BME280;42565;53.342;-1.534;2023-03-14T12:50:26;97989.19;;;7.36;50.50
56689;BME280;42565;53.342;-1.534;2023-03-14T12:53:15;97987.98;;;7.34;47.84
56689;BME280;42565;53.342;-1.534;2023-03-14T12:55:49;97993.77;;;6.48;49.82
56689;BME280;42565;53.342;-1.534;2023-03-14T12:58:27;97985.81;;;6.17;51.32
56689;BME280;42565;53.342;-1.534;2023-03-14T13:01:01;97983.34;;;5.59;52.96
56689;BME280;42565;53.342;-1.534;2023-03-14T13:03:38;97987.38;;;5.84;55.08
56689;BME280;42565;53.342;-1.534;2023-03-14T13:06:09;97982.77;;;6.56;54.89
56689;BME280;42565;53.342;-1.534;2023-03-14T13:08:39;97975.80;;;6.84;55.43